Wetterdaten: Dienstag, 30.09.2014
Datum Zeit Temp. A. Feuchte A. Luftdruck Regen Wind Richtung Richtung Sonnenschein ET UV Solar Taupunkt Windchill Windben Empfang
30.09.2014 00:00 10,2 C 90 % 1024,5 hPa 0,0 l/m 0,0 km/h (0 Bft) S 185 0 min 0,000 mm 0,0 UV-I 0 W/m 8,6 C 10,2 C 0,0 km/h (0 Bft) 0,00 %
30.09.2014 00:15 10,1 C 90 % 1024,4 hPa 0,0 l/m 0,0 km/h (0 Bft) S 172 0 min 0,000 mm 0,0 UV-I 0 W/m 8,5 C 10,1 C 0,0 km/h (0 Bft) 0,00 %
30.09.2014 00:30 10,2 C 90 % 1024,5 hPa 0,0 l/m 0,0 km/h (0 Bft) S 187 0 min 0,000 mm 0,0 UV-I 0 W/m 8,6 C 10,2 C 0,0 km/h (0 Bft) 0,00 %
30.09.2014 00:45 10,3 C 89 % 1024,4 hPa 0,0 l/m 0,0 km/h (0 Bft) S-SW 194 0 min 0,000 mm 0,0 UV-I 0 W/m 8,6 C 10,3 C 0,0 km/h (0 Bft) 0,00 %
30.09.2014 01:00 10,7 C 89 % 1024,4 hPa 0,0 l/m 0,0 km/h (0 Bft) S-SO 151 0 min 0,000 mm 0,0 UV-I 0 W/m 9,0 C 10,7 C 0,0 km/h (0 Bft) 0,00 %
30.09.2014 01:15 11,4 C 89 % 1024,5 hPa 0,0 l/m 0,0 km/h (0 Bft) S 175 0 min 0,000 mm 0,0 UV-I 0 W/m 9,7 C 11,4 C 0,0 km/h (0 Bft) 0,00 %
30.09.2014 01:30 11,5 C 89 % 1024,4 hPa 0,0 l/m 0,0 km/h (0 Bft) N-NO 26 0 min 0,000 mm 0,0 UV-I 0 W/m 9,8 C 11,5 C 0,0 km/h (0 Bft) 0,00 %
30.09.2014 01:45 11,6 C 89 % 1024,5 hPa 0,0 l/m 0,0 km/h (0 Bft) SO 129 0 min 0,000 mm 0,0 UV-I 0 W/m 9,8 C 11,6 C 0,0 km/h (0 Bft) 0,00 %
30.09.2014 02:00 11,6 C 89 % 1024,5 hPa 0,0 l/m 0,0 km/h (0 Bft) S 176 0 min 0,000 mm 0,0 UV-I 0 W/m 9,8 C 11,6 C 0,0 km/h (0 Bft) 0,00 %
30.09.2014 02:15 11,7 C 89 % 1024,3 hPa 0,0 l/m 0,0 km/h (0 Bft) S 173 0 min 0,000 mm 0,0 UV-I 0 W/m 9,9 C 11,7 C 0,0 km/h (0 Bft) 0,00 %
30.09.2014 02:30 11,7 C 89 % 1024,3 hPa 0,0 l/m 0,0 km/h (0 Bft) S-SW 205 0 min 0,000 mm 0,0 UV-I 0 W/m 9,9 C 11,7 C 0,0 km/h (0 Bft) 0,00 %
30.09.2014 02:45 11,6 C 89 % 1024,3 hPa 0,0 l/m 0,0 km/h (0 Bft) S-SW 205 0 min 0,000 mm 0,0 UV-I 0 W/m 9,8 C 11,6 C 0,0 km/h (0 Bft) 0,00 %
30.09.2014 03:00 11,6 C 89 % 1024,5 hPa 0,0 l/m 0,0 km/h (0 Bft) S-SW 195 0 min 0,000 mm 0,0 UV-I 0 W/m 9,8 C 11,6 C 0,0 km/h (0 Bft) 0,00 %
30.09.2014 03:15 11,7 C 89 % 1024,5 hPa 0,0 l/m 0,0 km/h (0 Bft) S-SW 202 0 min 0,000 mm 0,0 UV-I 0 W/m 9,9 C 11,7 C 0,0 km/h (0 Bft) 0,00 %
30.09.2014 03:30 11,7 C 89 % 1024,6 hPa 0,3 l/m 0,0 km/h (0 Bft) SW 219 0 min 0,000 mm 0,0 UV-I 0 W/m 9,9 C 11,7 C 0,0 km/h (0 Bft) 0,00 %
30.09.2014 03:45 11,8 C 89 % 1024,7 hPa 0,0 l/m 0,0 km/h (0 Bft) SW 219 0 min 0,000 mm 0,0 UV-I 0 W/m 10,0 C 11,8 C 0,0 km/h (0 Bft) 0,00 %
30.09.2014 04:00 11,9 C 89 % 1024,6 hPa 0,0 l/m 0,0 km/h (0 Bft) O-SO 113 0 min 0,000 mm 0,0 UV-I 0 W/m 10,1 C 11,9 C 0,0 km/h (0 Bft) 0,00 %
30.09.2014 04:15 12,0 C 89 % 1024,6 hPa 0,0 l/m 0,0 km/h (0 Bft) S 179 0 min 0,000 mm 0,0 UV-I 0 W/m 10,2 C 12,0 C 0,0 km/h (0 Bft) 0,00 %
30.09.2014 04:30 12,1 C 89 % 1024,7 hPa 0,0 l/m 0,0 km/h (0 Bft) S 184 0 min 0,000 mm 0,0 UV-I 0 W/m 10,3 C 12,1 C 0,0 km/h (0 Bft) 0,00 %
30.09.2014 04:45 12,1 C 89 % 1024,7 hPa 0,0 l/m 0,0 km/h (0 Bft) SO 135 0 min 0,000 mm 0,0 UV-I 0 W/m 10,3 C 12,1 C 0,0 km/h (0 Bft) 0,00 %
30.09.2014 05:00 12,1 C 89 % 1024,6 hPa 0,0 l/m 0,0 km/h (0 Bft) S 188 0 min 0,000 mm 0,0 UV-I 0 W/m 10,3 C 12,1 C 0,0 km/h (0 Bft) 0,00 %
30.09.2014 05:15 12,1 C 89 % 1024,7 hPa 0,0 l/m 0,0 km/h (0 Bft) S 188 0 min 0,000 mm 0,0 UV-I 0 W/m 10,3 C 12,1 C 0,0 km/h (0 Bft) 0,00 %
30.09.2014 05:30 12,2 C 89 % 1024,5 hPa 0,0 l/m 0,0 km/h (0 Bft) S 189 0 min 0,000 mm 0,0 UV-I 0 W/m 10,4 C 12,2 C 0,0 km/h (0 Bft) 0,00 %
30.09.2014 05:45 12,2 C 89 % 1024,8 hPa 0,0 l/m 0,0 km/h (0 Bft) SW 231 0 min 0,000 mm 0,0 UV-I 0 W/m 10,4 C 12,2 C 0,0 km/h (0 Bft) 0,00 %
30.09.2014 06:00 12,2 C 89 % 1024,7 hPa 0,0 l/m 0,0 km/h (0 Bft) SW 231 0 min 0,000 mm 0,0 UV-I 0 W/m 10,4 C 12,2 C 0,0 km/h (0 Bft) 0,00 %
30.09.2014 06:15 12,2 C 89 % 1024,7 hPa 0,0 l/m 0,0 km/h (0 Bft) SW 231 0 min 0,000 mm 0,0 UV-I 0 W/m 10,4 C 12,2 C 0,0 km/h (0 Bft) 0,00 %
30.09.2014 06:30 12,3 C 89 % 1024,7 hPa 0,0 l/m 0,0 km/h (0 Bft) W-SW 238 0 min 0,000 mm 0,0 UV-I 0 W/m 10,5 C 12,3 C 0,0 km/h (0 Bft) 0,00 %
30.09.2014 06:45 12,3 C 89 % 1024,9 hPa 0,0 l/m 0,0 km/h (0 Bft) W-SW 237 0 min 0,000 mm 0,0 UV-I 0 W/m 10,5 C 12,3 C 0,0 km/h (0 Bft) 0,00 %
30.09.2014 07:00 12,3 C 89 % 1025,1 hPa 0,0 l/m 0,0 km/h (0 Bft) SW 236 0 min 0,000 mm 0,0 UV-I 0 W/m 10,5 C 12,3 C 0,0 km/h (0 Bft) 0,00 %
30.09.2014 07:15 12,3 C 89 % 1025,2 hPa 0,0 l/m 0,0 km/h (0 Bft) S-SW 197 0 min 0,000 mm 0,0 UV-I 0 W/m 10,5 C 12,3 C 0,0 km/h (0 Bft) 0,00 %
30.09.2014 07:30 12,3 C 89 % 1025,1 hPa 0,0 l/m 0,0 km/h (0 Bft) W-SW 252 0 min 0,000 mm 0,0 UV-I 6 W/m 10,5 C 12,3 C 0,0 km/h (0 Bft) 0,00 %
30.09.2014 07:45 12,3 C 89 % 1025,0 hPa 0,0 l/m 0,0 km/h (0 Bft) O-NO 58 0 min 0,000 mm 1,0 UV-I 16 W/m 10,5 C 12,3 C 0,0 km/h (0 Bft) 0,00 %
30.09.2014 08:00 12,4 C 89 % 1025,3 hPa 0,0 l/m 0,0 km/h (0 Bft) O-NO 58 0 min 0,000 mm 1,0 UV-I 19 W/m 10,6 C 12,4 C 0,0 km/h (0 Bft) 0,00 %
30.09.2014 08:15 12,5 C 89 % 1025,2 hPa 0,0 l/m 0,0 km/h (0 Bft) SO 139 0 min 0,000 mm 1,0 UV-I 21 W/m 10,7 C 12,5 C 0,0 km/h (0 Bft) 0,00 %
30.09.2014 08:30 12,5 C 90 % 1025,4 hPa 0,0 l/m 0,0 km/h (0 Bft) S-SW 197 0 min 0,000 mm 1,0 UV-I 47 W/m 10,9 C 12,5 C 0,0 km/h (0 Bft) 0,00 %
30.09.2014 08:45 12,9 C 90 % 1025,2 hPa 0,0 l/m 0,0 km/h (0 Bft) S-SW 206 0 min 0,000 mm 1,0 UV-I 83 W/m 11,3 C 12,9 C 0,0 km/h (0 Bft) 0,00 %
30.09.2014 09:00 13,1 C 90 % 1025,4 hPa 0,0 l/m 0,0 km/h (0 Bft) S 174 0 min 0,000 mm 2,0 UV-I 84 W/m 11,5 C 13,1 C 0,0 km/h (0 Bft) 0,00 %
30.09.2014 09:15 13,3 C 90 % 1025,4 hPa 0,0 l/m 0,0 km/h (0 Bft) W-SW 252 0 min 0,000 mm 2,0 UV-I 94 W/m 11,7 C 13,3 C 0,0 km/h (0 Bft) 0,00 %
30.09.2014 09:30 13,3 C 90 % 1025,6 hPa 0,0 l/m 0,0 km/h (0 Bft) W-SW 253 0 min 0,000 mm 2,0 UV-I 115 W/m 11,7 C 13,3 C 0,0 km/h (0 Bft) 0,00 %
30.09.2014 09:45 13,2 C 89 % 1025,5 hPa 0,0 l/m 0,0 km/h (0 Bft) W-SW 255 0 min 0,000 mm 2,0 UV-I 135 W/m 11,4 C 13,2 C 0,0 km/h (0 Bft) 0,00 %
30.09.2014 10:00 13,6 C 89 % 1025,5 hPa 0,0 l/m 0,0 km/h (0 Bft) S 173 0 min 0,000 mm 2,0 UV-I 132 W/m 11,8 C 13,6 C 0,0 km/h (0 Bft) 0,00 %
30.09.2014 10:15 13,8 C 89 % 1025,5 hPa 0,0 l/m 0,0 km/h (0 Bft) SW 215 0 min 0,000 mm 2,0 UV-I 136 W/m 12,0 C 13,8 C 0,0 km/h (0 Bft) 0,00 %
30.09.2014 10:30 13,8 C 89 % 1025,1 hPa 0,0 l/m 0,0 km/h (0 Bft) W-SW 251 0 min 0,000 mm 2,0 UV-I 155 W/m 12,0 C 13,8 C 0,0 km/h (0 Bft) 0,00 %
30.09.2014 10:45 14,1 C 87 % 1025,3 hPa 0,0 l/m 0,0 km/h (0 Bft) W-SW 241 0 min 0,000 mm 2,0 UV-I 166 W/m 12,0 C 14,1 C 0,0 km/h (0 Bft) 0,00 %
30.09.2014 11:00 14,4 C 85 % 1025,2 hPa 0,0 l/m 0,0 km/h (0 Bft) W-SW 252 0 min 0,000 mm 2,0 UV-I 167 W/m 11,9 C 14,4 C 0,0 km/h (0 Bft) 0,00 %
30.09.2014 11:15 14,9 C 82 % 1025,0 hPa 0,0 l/m 0,0 km/h (0 Bft) SO 132 0 min 0,000 mm 2,0 UV-I 165 W/m 11,9 C 14,9 C 0,0 km/h (0 Bft) 0,00 %
30.09.2014 11:30 15,2 C 81 % 1024,8 hPa 0,0 l/m 0,0 km/h (0 Bft) W-SW 252 0 min 0,000 mm 2,0 UV-I 158 W/m 12,0 C 15,2 C 0,0 km/h (0 Bft) 0,00 %
30.09.2014 11:45 14,9 C 81 % 1024,8 hPa 0,0 l/m 0,0 km/h (0 Bft) W-SW 256 0 min 0,000 mm 2,0 UV-I 198 W/m 11,7 C 14,9 C 0,0 km/h (0 Bft) 0,00 %
30.09.2014 12:00 15,2 C 80 % 1024,7 hPa 0,0 l/m 0,0 km/h (0 Bft) S-SO 147 0 min 0,000 mm 2,0 UV-I 207 W/m 11,8 C 15,2 C 0,0 km/h (0 Bft) 0,00 %
30.09.2014 12:15 15,3 C 79 % 1024,7 hPa 0,0 l/m 0,0 km/h (0 Bft) N 359 0 min 0,000 mm 3,0 UV-I 227 W/m 11,7 C 15,3 C 0,0 km/h (0 Bft) 0,00 %
30.09.2014 12:30 15,4 C 80 % 1024,7 hPa 0,0 l/m 0,0 km/h (0 Bft) W 275 0 min 0,000 mm 3,0 UV-I 243 W/m 12,0 C 15,4 C 0,0 km/h (0 Bft) 0,00 %
30.09.2014 12:45 15,8 C 79 % 1024,6 hPa 0,0 l/m 0,0 km/h (0 Bft) S 190 0 min 0,000 mm 3,0 UV-I 255 W/m 12,2 C 15,8 C 0,0 km/h (0 Bft) 0,00 %
30.09.2014 13:00 16,5 C 75 % 1024,3 hPa 0,0 l/m 0,0 km/h (0 Bft) W-SW 253 0 min 0,000 mm 3,0 UV-I 282 W/m 12,1 C 16,5 C 0,0 km/h (0 Bft) 0,00 %
30.09.2014 13:15 16,3 C 79 % 1024,2 hPa 0,0 l/m 0,0 km/h (0 Bft) NO 51 15 min 0,000 mm 3,0 UV-I 371 W/m 12,6 C 16,3 C 0,0 km/h (0 Bft) 0,00 %
30.09.2014 13:30 17,0 C 75 % 1023,6 hPa 0,0 l/m 0,0 km/h (0 Bft) SW 230 0 min 0,000 mm 3,0 UV-I 312 W/m 12,5 C 17,0 C 0,0 km/h (0 Bft) 0,00 %
30.09.2014 13:45 17,6 C 74 % 1023,7 hPa 0,0 l/m 0,0 km/h (0 Bft) NW 312 15 min 0,000 mm 2,0 UV-I 379 W/m 12,9 C 17,6 C 0,0 km/h (0 Bft) 0,00 %
30.09.2014 14:00 17,1 C 74 % 1023,5 hPa 0,0 l/m 0,0 km/h (0 Bft) W-SW 255 0 min 0,000 mm 2,0 UV-I 254 W/m 12,4 C 17,1 C 0,0 km/h (0 Bft) 0,00 %
30.09.2014 14:15 17,4 C 75 % 1023,3 hPa 0,0 l/m 0,0 km/h (0 Bft) N-NW 335 0 min 0,000 mm 2,0 UV-I 223 W/m 12,9 C 17,4 C 0,0 km/h (0 Bft) 0,00 %
30.09.2014 14:30 17,0 C 75 % 1023,2 hPa 0,0 l/m 0,4 km/h (0 Bft) O-SO 118 0 min 0,000 mm 2,0 UV-I 196 W/m 12,5 C 17,0 C 4,0 km/h (1 Bft) 0,00 %
30.09.2014 14:45 17,6 C 74 % 1022,8 hPa 0,0 l/m 0,0 km/h (0 Bft) O-NO 75 0 min 0,000 mm 2,0 UV-I 212 W/m 12,9 C 17,6 C 0,0 km/h (0 Bft) 0,00 %
30.09.2014 15:00 18,1 C 73 % 1022,4 hPa 0,0 l/m 0,0 km/h (0 Bft) SO 134 0 min 0,000 mm 2,0 UV-I 202 W/m 13,2 C 18,1 C 0,0 km/h (0 Bft) 0,00 %
30.09.2014 15:15 18,5 C 72 % 1022,4 hPa 0,0 l/m 0,0 km/h (0 Bft) O-SO 115 0 min 0,000 mm 2,0 UV-I 179 W/m 13,4 C 18,5 C 0,0 km/h (0 Bft) 0,00 %
30.09.2014 15:30 18,9 C 70 % 1022,3 hPa 0,0 l/m 0,0 km/h (0 Bft) S 183 0 min 0,000 mm 2,0 UV-I 198 W/m 13,3 C 18,9 C 0,0 km/h (0 Bft) 0,00 %
30.09.2014 15:45 19,3 C 69 % 1022,0 hPa 0,0 l/m 0,0 km/h (0 Bft) O-SO 103 0 min 0,000 mm 1,0 UV-I 213 W/m 13,5 C 19,3 C 0,0 km/h (0 Bft) 0,00 %
30.09.2014 16:00 19,5 C 66 % 1022,0 hPa 0,0 l/m 0,0 km/h (0 Bft) SW 234 0 min 0,000 mm 1,0 UV-I 191 W/m 13,0 C 19,5 C 0,0 km/h (0 Bft) 0,00 %
30.09.2014 16:15 19,7 C 66 % 1021,7 hPa 0,0 l/m 0,0 km/h (0 Bft) W-NW 282 0 min 0,000 mm 1,0 UV-I 195 W/m 13,2 C 19,7 C 0,0 km/h (0 Bft) 0,00 %
30.09.2014 16:30 19,8 C 67 % 1022,3 hPa 0,0 l/m 0,0 km/h (0 Bft) W-SW 253 0 min 0,000 mm 1,0 UV-I 114 W/m 13,5 C 19,8 C 0,0 km/h (0 Bft) 0,00 %
30.09.2014 16:45 19,4 C 69 % 1022,2 hPa 0,0 l/m 0,0 km/h (0 Bft) O-NO 71 0 min 0,000 mm 1,0 UV-I 117 W/m 13,6 C 19,4 C 0,0 km/h (0 Bft) 0,00 %
30.09.2014 17:00 19,1 C 70 % 1022,3 hPa 0,0 l/m 0,0 km/h (0 Bft) W-NW 287 0 min 0,000 mm 0,0 UV-I 84 W/m 13,5 C 19,1 C 0,0 km/h (0 Bft) 0,00 %
30.09.2014 17:15 19,0 C 70 % 1022,6 hPa 0,0 l/m 0,0 km/h (0 Bft) W-NW 294 0 min 0,000 mm 0,0 UV-I 72 W/m 13,4 C 19,0 C 0,0 km/h (0 Bft) 0,00 %
30.09.2014 17:30 18,9 C 70 % 1022,7 hPa 0,0 l/m 0,0 km/h (0 Bft) W-NW 294 0 min 0,000 mm 0,0 UV-I 48 W/m 13,3 C 18,9 C 0,0 km/h (0 Bft) 0,00 %
30.09.2014 17:45 18,6 C 73 % 1022,6 hPa 0,0 l/m 0,0 km/h (0 Bft) S-SW 202 0 min 0,000 mm 0,0 UV-I 43 W/m 13,7 C 18,6 C 0,0 km/h (0 Bft) 0,00 %
30.09.2014 18:00 18,3 C 77 % 1022,6 hPa 0,0 l/m 0,0 km/h (0 Bft) S-SW 202 0 min 0,000 mm 0,0 UV-I 30 W/m 14,2 C 18,3 C 0,0 km/h (0 Bft) 0,00 %
30.09.2014 18:15 17,8 C 77 % 1023,0 hPa 0,0 l/m 0,0 km/h (0 Bft) S-SO 159 0 min 0,000 mm 0,0 UV-I 16 W/m 13,7 C 17,8 C 0,0 km/h (0 Bft) 0,00 %
30.09.2014 18:30 17,5 C 79 % 1022,9 hPa 0,0 l/m 0,0 km/h (0 Bft) S 190 0 min 0,000 mm 0,0 UV-I 0 W/m 13,8 C 17,5 C 0,0 km/h (0 Bft) 0,00 %
30.09.2014 18:45 17,1 C 79 % 1023,1 hPa 0,0 l/m 0,0 km/h (0 Bft) S 180 0 min 0,000 mm 0,0 UV-I 0 W/m 13,4 C 17,1 C 0,0 km/h (0 Bft) 0,00 %
30.09.2014 19:00 16,6 C 81 % 1023,4 hPa 0,0 l/m 0,0 km/h (0 Bft) S-SW 197 0 min 0,000 mm 0,0 UV-I 0 W/m 13,3 C 16,6 C 0,0 km/h (0 Bft) 0,00 %
30.09.2014 19:15 16,3 C 83 % 1023,2 hPa 0,0 l/m 0,0 km/h (0 Bft) O-SO 116 0 min 0,000 mm 0,0 UV-I 0 W/m 13,4 C 16,3 C 0,0 km/h (0 Bft) 0,00 %
30.09.2014 19:30 16,2 C 83 % 1023,3 hPa 0,0 l/m 0,0 km/h (0 Bft) S 186 0 min 0,000 mm 0,0 UV-I 0 W/m 13,3 C 16,2 C 0,0 km/h (0 Bft) 0,00 %
30.09.2014 19:45 16,0 C 84 % 1023,4 hPa 0,0 l/m 0,0 km/h (0 Bft) SO 132 0 min 0,000 mm 0,0 UV-I 0 W/m 13,3 C 16,0 C 0,0 km/h (0 Bft) 0,00 %
30.09.2014 20:00 15,9 C 84 % 1023,5 hPa 0,0 l/m 0,0 km/h (0 Bft) S-SW 192 0 min 0,000 mm 0,0 UV-I 0 W/m 13,2 C 15,9 C 0,0 km/h (0 Bft) 0,00 %
30.09.2014 20:15 15,9 C 84 % 1023,6 hPa 0,0 l/m 0,0 km/h (0 Bft) S-SW 192 0 min 0,000 mm 0,0 UV-I 0 W/m 13,2 C 15,9 C 0,0 km/h (0 Bft) 0,00 %
30.09.2014 20:30 15,8 C 84 % 1023,7 hPa 0,0 l/m 0,0 km/h (0 Bft) SO 133 0 min 0,000 mm 0,0 UV-I 0 W/m 13,1 C 15,8 C 0,0 km/h (0 Bft) 0,00 %
30.09.2014 20:45 15,7 C 84 % 1023,8 hPa 0,0 l/m 0,0 km/h (0 Bft) S 184 0 min 0,000 mm 0,0 UV-I 0 W/m 13,0 C 15,7 C 0,0 km/h (0 Bft) 0,00 %
30.09.2014 21:00 15,7 C 84 % 1023,6 hPa 0,0 l/m 0,0 km/h (0 Bft) S 173 0 min 0,000 mm 0,0 UV-I 0 W/m 13,0 C 15,7 C 0,0 km/h (0 Bft) 0,00 %
30.09.2014 21:15 15,6 C 84 % 1023,9 hPa 0,0 l/m 0,0 km/h (0 Bft) S 191 0 min 0,000 mm 0,0 UV-I 0 W/m 12,9 C 15,6 C 0,0 km/h (0 Bft) 0,00 %
30.09.2014 21:30 15,5 C 84 % 1023,8 hPa 0,0 l/m 0,0 km/h (0 Bft) S 189 0 min 0,000 mm 0,0 UV-I 0 W/m 12,8 C 15,5 C 0,0 km/h (0 Bft) 0,00 %
30.09.2014 21:45 15,5 C 84 % 1023,6 hPa 0,0 l/m 0,0 km/h (0 Bft) S 175 0 min 0,000 mm 0,0 UV-I 0 W/m 12,8 C 15,5 C 0,0 km/h (0 Bft) 0,00 %
30.09.2014 22:00 15,4 C 85 % 1023,6 hPa 0,0 l/m 0,0 km/h (0 Bft) S 175 0 min 0,000 mm 0,0 UV-I 0 W/m 12,9 C 15,4 C 0,0 km/h (0 Bft) 0,00 %
30.09.2014 22:15 15,4 C 85 % 1023,6 hPa 0,0 l/m 0,0 km/h (0 Bft) S 175 0 min 0,000 mm 0,0 UV-I 0 W/m 12,9 C 15,4 C 0,0 km/h (0 Bft) 0,00 %
30.09.2014 22:30 15,3 C 85 % 1023,8 hPa 0,0 l/m 0,0 km/h (0 Bft) S 175 0 min 0,000 mm 0,0 UV-I 0 W/m 12,8 C 15,3 C 0,0 km/h (0 Bft) 0,00 %
30.09.2014 22:45 15,3 C 85 % 1023,8 hPa 0,0 l/m 0,0 km/h (0 Bft) S 175 0 min 0,000 mm 0,0 UV-I 0 W/m 12,8 C 15,3 C 0,0 km/h (0 Bft) 0,00 %
30.09.2014 23:00 15,2 C 85 % 1023,8 hPa 0,0 l/m 0,0 km/h (0 Bft) S 174 0 min 0,000 mm 0,0 UV-I 0 W/m 12,7 C 15,2 C 0,0 km/h (0 Bft) 0,00 %
30.09.2014 23:15 15,2 C 85 % 1023,8 hPa 0,0 l/m 0,0 km/h (0 Bft) W-SW 255 0 min 0,000 mm 0,0 UV-I 0 W/m 12,7 C 15,2 C 0,0 km/h (0 Bft) 0,00 %
30.09.2014 23:30 15,2 C 85 % 1023,7 hPa 0,0 l/m 0,0 km/h (0 Bft) W-SW 250 0 min 0,000 mm 0,0 UV-I 0 W/m 12,7 C 15,2 C 0,0 km/h (0 Bft) 0,00 %
30.09.2014 23:45 15,2 C 85 % 1023,7 hPa 0,0 l/m 0,0 km/h (0 Bft) S 177 0 min 0,000 mm 0,0 UV-I 0 W/m 12,7 C 15,2 C 0,0 km/h (0 Bft) 0,00 %
_ Min-Zeit 00:15 16:00 16:15 - 00:00 - - - - - - 00:15 00:15 00:00 00:00
Minimum _ 10,1 C 66 % 1021,7 hPa - 0,0 km/h (0 Bft) - - - - - - 8,5 C 10,1 C 0,0 km/h (0 Bft) 0,00 %
_ Max-Zeit 16:30 00:00 09:30 03:30 14:30 - - 13:15 00:00 12:15 13:45 18:00 16:30 14:30 00:00
Maximum _ 19,8 C 90 % 1025,6 hPa 0,3 l/m 0,4 km/h
O-SO (0 Bft)
- - 15 min 0,000 mm 3,0 UV-I 379 W/m 14,2 C 19,8 C 4,0 km/h
O-SO (1 Bft)
0,00 %
Durchschnitt _ 14,7 C 83 % 1024,1 hPa #0,3 l/m 0,0 km/h (0 Bft) N - #30 min. #0,000 mm 1,9 UV-I 154 W/m 11,8 C 14,7 C 0,0 km/h (0 Bft) 0,00 %